createdAt,value
2019-03-22T00:00:30.824Z,5.10
2019-03-22T00:02:59.508Z,5.10
2019-03-22T00:05:28.392Z,5.10
2019-03-22T00:07:57.143Z,5.10
2019-03-22T00:10:25.752Z,5.20
2019-03-22T00:12:54.452Z,5.20
2019-03-22T00:15:23.327Z,5.20
2019-03-22T00:17:52.031Z,5.10
2019-03-22T00:20:20.796Z,5.00
2019-03-22T00:22:49.541Z,4.90
2019-03-22T00:25:18.207Z,4.70
2019-03-22T00:27:46.979Z,4.50
2019-03-22T00:30:15.885Z,4.40
2019-03-22T00:32:44.659Z,4.40
2019-03-22T00:35:13.470Z,4.30
2019-03-22T00:37:42.334Z,4.30
2019-03-22T00:40:11.439Z,4.40
2019-03-22T00:42:40.121Z,4.50
2019-03-22T00:45:10.906Z,4.50
2019-03-22T00:47:39.644Z,4.60
2019-03-22T00:50:10.735Z,4.60
2019-03-22T00:52:39.405Z,4.60
2019-03-22T00:55:08.740Z,4.50
2019-03-22T00:57:37.507Z,4.40
2019-03-22T01:00:14.420Z,4.40
2019-03-22T01:02:43.264Z,4.30
2019-03-22T01:05:12.260Z,4.30
2019-03-22T01:07:41.110Z,4.30
2019-03-22T01:10:14.221Z,4.30
2019-03-22T01:12:42.986Z,4.20
2019-03-22T01:15:14.689Z,4.20
2019-03-22T01:17:43.538Z,4.20
2019-03-22T01:20:13.777Z,4.20
2019-03-22T01:22:42.840Z,4.30
2019-03-22T01:25:12.841Z,4.40
2019-03-22T01:27:41.868Z,4.40
2019-03-22T01:30:14.023Z,4.50
2019-03-22T01:32:43.573Z,4.70
2019-03-22T01:35:13.354Z,4.70
2019-03-22T01:37:42.063Z,4.80
2019-03-22T01:40:12.218Z,4.80
2019-03-22T01:42:40.890Z,4.80
2019-03-22T01:45:12.139Z,4.90
2019-03-22T01:47:40.948Z,5.00
2019-03-22T01:50:12.738Z,5.00
2019-03-22T01:52:41.575Z,5.00
2019-03-22T01:55:10.359Z,5.00
2019-03-22T01:57:39.168Z,5.10
2019-03-22T02:00:11.179Z,5.10
2019-03-22T02:02:39.878Z,5.20
2019-03-22T02:05:09.983Z,5.20
2019-03-22T02:07:38.804Z,5.20
2019-03-22T02:10:10.023Z,5.30
2019-03-22T02:12:38.756Z,5.30
2019-03-22T02:15:10.290Z,5.40
2019-03-22T02:17:39.077Z,5.30
2019-03-22T02:20:09.110Z,5.20
2019-03-22T02:22:37.805Z,5.20
2019-03-22T02:25:07.631Z,5.20
2019-03-22T02:27:36.512Z,5.30
2019-03-22T02:30:10.778Z,5.30
2019-03-22T02:32:39.398Z,5.30
2019-03-22T02:35:08.301Z,5.40
2019-03-22T02:37:37.164Z,5.30
2019-03-22T02:40:13.039Z,5.30
2019-03-22T02:42:41.962Z,5.30
2019-03-22T02:45:14.841Z,5.30
2019-03-22T02:47:43.654Z,5.20
2019-03-22T02:50:18.799Z,5.20
2019-03-22T02:52:44.495Z,5.10
2019-03-22T02:55:13.941Z,5.00
2019-03-22T02:57:42.792Z,4.90
2019-03-22T03:00:14.110Z,4.80
2019-03-22T03:02:42.910Z,4.70
2019-03-22T03:05:11.976Z,4.70
2019-03-22T03:07:40.687Z,4.70
2019-03-22T03:10:14.288Z,4.60
2019-03-22T03:12:43.591Z,4.60
2019-03-22T03:15:16.457Z,4.60
2019-03-22T03:17:45.145Z,4.60
2019-03-22T03:20:15.889Z,4.60
2019-03-22T03:22:44.862Z,4.70
2019-03-22T03:25:13.987Z,4.70
2019-03-22T03:27:42.814Z,4.80
2019-03-22T03:30:17.009Z,4.90
2019-03-22T03:32:45.839Z,4.90
2019-03-22T03:35:15.152Z,4.90
2019-03-22T03:37:43.923Z,5.00
2019-03-22T03:40:15.135Z,5.00
2019-03-22T03:42:43.793Z,5.10
2019-03-22T03:45:30.429Z,5.10
2019-03-22T03:48:00.901Z,5.10
2019-03-22T03:50:29.613Z,5.20
2019-03-22T03:52:58.418Z,5.20
2019-03-22T03:55:28.059Z,5.10
2019-03-22T03:57:56.717Z,5.10
2019-03-22T04:00:25.398Z,5.10
2019-03-22T04:02:54.222Z,5.10
2019-03-22T04:05:22.983Z,5.10
2019-03-22T04:07:52.476Z,5.10
2019-03-22T04:10:21.348Z,5.10
2019-03-22T04:12:49.968Z,5.10
2019-03-22T04:15:18.664Z,5.00
2019-03-22T04:17:47.381Z,4.90
2019-03-22T04:20:16.207Z,4.80
2019-03-22T04:22:44.913Z,4.70
2019-03-22T04:25:13.779Z,4.70
2019-03-22T04:27:42.547Z,4.50
2019-03-22T04:30:11.424Z,4.40
2019-03-22T04:32:40.092Z,4.30
2019-03-22T04:35:09.195Z,4.20
2019-03-22T04:37:37.903Z,4.10
2019-03-22T04:40:18.720Z,4.10
2019-03-22T04:42:47.508Z,4.10
2019-03-22T04:45:16.402Z,4.10
2019-03-22T04:47:46.238Z,4.10
2019-03-22T04:50:15.422Z,4.10
2019-03-22T04:52:44.552Z,4.00
2019-03-22T04:55:14.204Z,3.90
2019-03-22T04:57:43.923Z,3.80
2019-03-22T05:00:13.921Z,3.80
2019-03-22T05:02:43.098Z,3.90
2019-03-22T05:05:13.292Z,4.00
2019-03-22T05:07:42.827Z,4.10
2019-03-22T05:10:13.916Z,4.20
2019-03-22T05:12:44.357Z,4.30
2019-03-22T05:15:15.794Z,4.40
2019-03-22T05:17:45.673Z,4.40
2019-03-22T05:20:15.603Z,4.50
2019-03-22T05:22:45.884Z,4.60
2019-03-22T05:25:15.533Z,4.50
2019-03-22T05:27:45.309Z,4.50
2019-03-22T05:30:35.338Z,4.60
2019-03-22T05:33:04.214Z,4.70
2019-03-22T05:35:32.898Z,4.90
2019-03-22T05:38:01.605Z,5.10
2019-03-22T05:40:30.287Z,5.20
2019-03-22T05:42:58.998Z,5.40
2019-03-22T05:45:27.698Z,5.60
2019-03-22T05:47:56.442Z,5.80
2019-03-22T05:50:25.207Z,5.80
2019-03-22T05:52:54.043Z,6.10
2019-03-22T05:55:22.782Z,6.30
2019-03-22T05:57:51.432Z,6.40
2019-03-22T06:00:20.112Z,6.50
2019-03-22T06:02:48.845Z,6.90
2019-03-22T06:05:17.619Z,7.10
2019-03-22T06:07:46.291Z,7.00
2019-03-22T06:10:14.995Z,7.00
2019-03-22T06:12:43.778Z,6.90
2019-03-22T06:15:12.658Z,6.80
2019-03-22T06:17:51.181Z,6.80
2019-03-22T06:20:11.838Z,6.70
2019-03-22T06:22:40.756Z,6.70
2019-03-22T06:25:09.621Z,6.70
2019-03-22T06:27:38.283Z,6.60
2019-03-22T06:30:08.424Z,6.70
2019-03-22T06:32:37.268Z,6.70
2019-03-22T06:35:07.449Z,6.70
2019-03-22T06:37:36.182Z,6.70
2019-03-22T06:40:06.186Z,6.80
2019-03-22T06:42:34.906Z,6.80
2019-03-22T06:45:04.673Z,6.90
2019-03-22T06:47:33.326Z,7.00
2019-03-22T06:50:02.044Z,7.10
2019-03-22T06:52:30.811Z,7.10
2019-03-22T06:54:59.531Z,7.20
2019-03-22T06:57:28.247Z,7.30
2019-03-22T07:00:05.910Z,7.30
2019-03-22T07:02:27.454Z,7.30
2019-03-22T07:04:56.099Z,7.40
2019-03-22T07:07:24.838Z,7.50
2019-03-22T07:09:53.814Z,7.50
2019-03-22T07:12:22.511Z,7.60
2019-03-22T07:14:51.225Z,7.70
2019-03-22T07:17:20.051Z,7.70
2019-03-22T07:19:48.917Z,7.80
2019-03-22T07:22:17.687Z,7.80
2019-03-22T07:24:46.407Z,7.90
2019-03-22T07:27:15.158Z,7.90
2019-03-22T07:29:43.943Z,8.00
2019-03-22T07:32:12.793Z,8.10
2019-03-22T07:34:41.474Z,8.10
2019-03-22T07:37:10.232Z,8.10
2019-03-22T07:39:38.877Z,8.10
2019-03-22T07:42:07.621Z,8.10
2019-03-22T07:44:36.478Z,8.10
2019-03-22T07:47:05.289Z,8.10
2019-03-22T07:49:34.212Z,8.10
2019-03-22T07:52:02.907Z,8.20
2019-03-22T07:54:31.602Z,8.30
2019-03-22T07:57:00.319Z,8.40
2019-03-22T07:59:29.357Z,8.50
2019-03-22T08:01:58.168Z,8.50
2019-03-22T08:04:26.892Z,8.50
2019-03-22T08:06:55.702Z,8.60
2019-03-22T08:09:24.510Z,8.60
2019-03-22T08:11:53.530Z,8.60
2019-03-22T08:14:22.372Z,8.70
2019-03-22T08:16:51.313Z,8.80
2019-03-22T08:19:20.061Z,8.80
2019-03-22T08:21:48.964Z,8.90
2019-03-22T08:24:17.687Z,8.90
2019-03-22T08:26:46.613Z,9.00
2019-03-22T08:29:15.391Z,9.10
2019-03-22T08:31:44.118Z,9.30
2019-03-22T08:34:13.474Z,9.40
2019-03-22T08:36:43.841Z,9.50
2019-03-22T08:39:12.771Z,9.70
2019-03-22T08:41:41.562Z,9.80
2019-03-22T08:44:10.559Z,9.90
2019-03-22T08:46:39.667Z,10.00
2019-03-22T08:49:09.700Z,10.10
2019-03-22T08:51:38.792Z,10.10
2019-03-22T08:54:07.560Z,10.20
2019-03-22T08:56:36.490Z,10.30
2019-03-22T08:59:05.419Z,10.50
2019-03-22T09:01:34.270Z,10.70
2019-03-22T09:04:03.371Z,10.80
2019-03-22T09:06:32.349Z,10.80
2019-03-22T09:09:01.084Z,10.90
2019-03-22T09:11:29.944Z,11.00
2019-03-22T09:13:58.822Z,11.10
2019-03-22T09:16:30.526Z,11.10
2019-03-22T09:18:58.146Z,11.20
2019-03-22T09:21:27.022Z,11.30
2019-03-22T09:23:55.780Z,11.30
2019-03-22T09:26:24.543Z,11.30
2019-03-22T09:28:53.264Z,11.40
2019-03-22T09:31:22.055Z,11.40
2019-03-22T09:33:50.857Z,11.50
2019-03-22T09:36:19.754Z,11.60
2019-03-22T09:38:48.651Z,11.70
2019-03-22T09:41:17.380Z,11.80
2019-03-22T09:43:46.308Z,11.80
2019-03-22T09:46:15.066Z,11.80
2019-03-22T09:48:43.798Z,11.90
2019-03-22T09:51:12.600Z,11.80
2019-03-22T09:53:41.395Z,11.80
2019-03-22T09:56:10.147Z,11.80
2019-03-22T09:58:39.008Z,11.80
2019-03-22T10:01:07.877Z,11.80
2019-03-22T10:03:36.668Z,11.80
2019-03-22T10:06:05.571Z,11.80
2019-03-22T10:08:34.426Z,11.90
2019-03-22T10:11:03.200Z,11.90
2019-03-22T10:13:31.953Z,11.90
2019-03-22T10:16:00.619Z,12.00
2019-03-22T10:18:29.327Z,12.00
2019-03-22T10:20:58.167Z,12.10
2019-03-22T10:23:26.937Z,12.20
2019-03-22T10:25:55.726Z,12.20
2019-03-22T10:28:24.416Z,12.40
2019-03-22T10:30:53.073Z,12.40
2019-03-22T10:33:23.070Z,12.50
2019-03-22T10:35:52.339Z,12.60
2019-03-22T10:38:30.900Z,12.80
2019-03-22T10:40:51.485Z,12.90
2019-03-22T10:43:20.388Z,13.10
2019-03-22T10:45:50.153Z,13.20
2019-03-22T10:48:18.777Z,13.30
2019-03-22T10:50:47.648Z,13.60
2019-03-22T10:53:16.484Z,13.90
2019-03-22T10:55:45.327Z,14.10
2019-03-22T10:58:20.777Z,14.20
2019-03-22T11:00:44.473Z,14.50
2019-03-22T11:03:13.251Z,14.50
2019-03-22T11:05:42.058Z,14.50
2019-03-22T11:08:10.799Z,14.50
2019-03-22T11:10:39.607Z,14.60
2019-03-22T11:13:08.370Z,14.70
2019-03-22T11:15:37.222Z,14.70
2019-03-22T11:18:06.181Z,14.50
2019-03-22T11:20:35.070Z,14.50
2019-03-22T11:23:03.918Z,14.30
2019-03-22T11:25:32.757Z,14.20
2019-03-22T11:28:01.510Z,14.10
2019-03-22T11:30:30.398Z,14.00
2019-03-22T11:32:59.232Z,13.90
2019-03-22T11:35:28.004Z,13.80
2019-03-22T11:37:56.731Z,13.70
2019-03-22T11:40:25.449Z,13.50
2019-03-22T11:42:54.298Z,13.50
2019-03-22T11:45:24.663Z,13.40
2019-03-22T11:47:53.756Z,13.40
2019-03-22T11:50:23.326Z,13.30
2019-03-22T11:52:52.191Z,13.20
2019-03-22T11:55:20.797Z,13.10
2019-03-22T11:57:49.578Z,13.10
2019-03-22T12:00:27.584Z,13.10
2019-03-22T12:02:56.510Z,13.00
2019-03-22T12:05:25.379Z,13.10
2019-03-22T12:07:54.165Z,13.10
2019-03-22T12:10:23.424Z,13.10
2019-03-22T12:12:52.253Z,13.10
2019-03-22T12:15:24.165Z,13.20
2019-03-22T12:17:53.010Z,13.20
2019-03-22T12:20:23.426Z,13.20
2019-03-22T12:22:52.560Z,13.20
2019-03-22T12:25:25.781Z,13.30
2019-03-22T12:27:54.601Z,13.40
2019-03-22T12:30:23.407Z,13.50
2019-03-22T12:32:52.273Z,13.60
2019-03-22T12:35:21.149Z,13.60
2019-03-22T12:37:49.978Z,13.70
2019-03-22T12:40:20.767Z,13.70
2019-03-22T12:42:49.613Z,13.80
2019-03-22T12:45:26.987Z,13.80
2019-03-22T12:47:55.862Z,13.80
2019-03-22T12:50:25.097Z,13.90
2019-03-22T12:52:53.861Z,14.00
2019-03-22T12:55:22.769Z,14.00
2019-03-22T12:57:51.712Z,14.10
2019-03-22T13:00:27.356Z,14.10
2019-03-22T13:02:56.389Z,14.30
2019-03-22T13:05:25.271Z,14.40
2019-03-22T13:07:54.019Z,14.40
2019-03-22T13:10:29.996Z,14.40
2019-03-22T13:12:58.825Z,14.40
2019-03-22T13:15:27.833Z,14.30
2019-03-22T13:17:56.672Z,14.30
2019-03-22T13:20:25.458Z,13.80
2019-03-22T13:22:54.461Z,13.90
2019-03-22T13:25:23.272Z,14.00
2019-03-22T13:27:52.388Z,14.10
2019-03-22T13:30:32.749Z,14.20
2019-03-22T13:33:01.541Z,14.20
2019-03-22T13:35:31.067Z,14.30
2019-03-22T13:38:00.360Z,14.30
2019-03-22T13:40:29.201Z,14.30
2019-03-22T13:42:58.550Z,14.40
2019-03-22T13:45:27.466Z,14.50
2019-03-22T13:47:56.277Z,14.50
2019-03-22T13:50:25.141Z,14.60
2019-03-22T13:52:53.935Z,14.80
2019-03-22T13:55:22.801Z,15.00
2019-03-22T13:57:51.524Z,15.10
2019-03-22T14:00:20.377Z,15.10
2019-03-22T14:02:49.405Z,15.10
2019-03-22T14:05:18.270Z,15.00
2019-03-22T14:07:47.141Z,15.00
2019-03-22T14:10:31.004Z,14.90
2019-03-22T14:13:01.312Z,14.70
2019-03-22T14:15:30.285Z,14.60
2019-03-22T14:17:59.266Z,14.50
2019-03-22T14:20:28.092Z,14.50
2019-03-22T14:22:56.931Z,14.30
2019-03-22T14:25:25.828Z,14.20
2019-03-22T14:27:55.107Z,14.00
2019-03-22T14:30:24.129Z,13.90
2019-03-22T14:32:52.891Z,13.90
2019-03-22T14:35:21.635Z,13.80
2019-03-22T14:37:50.375Z,13.60
2019-03-22T14:40:19.170Z,13.60
2019-03-22T14:42:47.932Z,13.60
2019-03-22T14:45:16.755Z,13.60
2019-03-22T14:47:45.591Z,13.60
2019-03-22T14:50:14.544Z,13.60
2019-03-22T14:52:43.327Z,13.50
2019-03-22T14:55:12.524Z,13.40
2019-03-22T14:57:48.974Z,13.40
2019-03-22T15:00:14.138Z,13.30
2019-03-22T15:02:42.953Z,13.30
2019-03-22T15:05:11.840Z,13.20
2019-03-22T15:07:40.545Z,13.10
2019-03-22T15:10:11.239Z,13.10
2019-03-22T15:12:40.204Z,13.10
2019-03-22T15:15:18.132Z,13.00
2019-03-22T15:18:04.687Z,13.00
2019-03-22T15:20:35.110Z,12.90
2019-03-22T15:23:08.593Z,12.90
2019-03-22T15:25:48.162Z,12.80
2019-03-22T15:28:35.179Z,12.80
2019-03-22T15:31:08.069Z,12.70
2019-03-22T15:33:44.334Z,12.60
2019-03-22T15:36:30.954Z,12.50
2019-03-22T15:39:07.801Z,12.50
2019-03-22T15:41:37.323Z,12.50
2019-03-22T15:44:06.247Z,12.40
2019-03-22T15:46:35.047Z,12.40
2019-03-22T15:49:03.775Z,12.40
2019-03-22T15:51:32.531Z,12.40
2019-03-22T15:54:01.381Z,12.30
2019-03-22T15:56:30.154Z,12.30
2019-03-22T15:58:58.864Z,12.20
2019-03-22T16:01:27.553Z,12.20
2019-03-22T16:03:56.334Z,12.10
2019-03-22T16:06:25.200Z,12.10
2019-03-22T16:08:54.088Z,12.00
2019-03-22T16:11:22.919Z,12.00
2019-03-22T16:13:53.684Z,12.00
2019-03-22T16:16:22.153Z,12.00
2019-03-22T16:18:50.983Z,11.90
2019-03-22T16:21:19.804Z,11.90
2019-03-22T16:23:48.735Z,11.90
2019-03-22T16:26:17.365Z,11.80
2019-03-22T16:28:46.158Z,11.80
2019-03-22T16:31:15.105Z,11.70
2019-03-22T16:33:47.070Z,11.70
2019-03-22T16:36:14.380Z,11.70
2019-03-22T16:38:43.410Z,11.60
2019-03-22T16:41:12.362Z,11.60
2019-03-22T16:43:41.322Z,11.50
2019-03-22T16:46:10.331Z,11.50
2019-03-22T16:48:39.150Z,11.40
2019-03-22T16:51:08.033Z,11.40
2019-03-22T16:53:36.934Z,11.30
2019-03-22T16:56:05.748Z,11.30
2019-03-22T16:58:34.581Z,11.30
2019-03-22T17:01:03.659Z,11.20
2019-03-22T17:03:32.364Z,11.20
2019-03-22T17:06:01.232Z,11.20
2019-03-22T17:08:30.126Z,11.20
2019-03-22T17:10:58.867Z,11.10
2019-03-22T17:13:27.651Z,11.10
2019-03-22T17:15:56.494Z,11.10
2019-03-22T17:18:25.332Z,11.00
2019-03-22T17:20:54.143Z,11.00
2019-03-22T17:23:23.043Z,11.00
2019-03-22T17:25:51.946Z,10.90
2019-03-22T17:28:20.777Z,11.00
2019-03-22T17:30:49.590Z,10.90
2019-03-22T17:33:18.392Z,10.80
2019-03-22T17:35:47.339Z,10.80
2019-03-22T17:38:16.196Z,10.80
2019-03-22T17:40:45.004Z,10.70
2019-03-22T17:43:13.857Z,10.70
2019-03-22T17:45:42.797Z,10.70
2019-03-22T17:48:11.447Z,10.70
2019-03-22T17:50:40.157Z,10.70
2019-03-22T17:53:09.071Z,10.70
2019-03-22T17:55:38.286Z,10.70
2019-03-22T17:58:07.135Z,10.70
2019-03-22T18:00:36.061Z,10.70
2019-03-22T18:03:05.197Z,10.70
2019-03-22T18:05:34.150Z,10.70
2019-03-22T18:08:03.049Z,10.70
2019-03-22T18:10:32.091Z,10.70
2019-03-22T18:13:01.005Z,10.60
2019-03-22T18:15:29.797Z,10.60
2019-03-22T18:17:58.523Z,10.60
2019-03-22T18:20:27.331Z,10.60
2019-03-22T18:22:56.055Z,10.50
2019-03-22T18:25:24.755Z,10.50
2019-03-22T18:27:53.510Z,10.50
2019-03-22T18:30:22.352Z,10.50
2019-03-22T18:32:51.028Z,10.50
2019-03-22T18:35:19.909Z,10.50
2019-03-22T18:37:48.904Z,10.40
2019-03-22T18:40:17.741Z,10.40
2019-03-22T18:42:46.483Z,10.40
2019-03-22T18:45:15.748Z,10.40
2019-03-22T18:47:44.772Z,10.40
2019-03-22T18:50:14.544Z,10.30
2019-03-22T18:52:43.494Z,10.30
2019-03-22T18:55:12.937Z,10.30
2019-03-22T18:57:41.854Z,10.30
2019-03-22T19:00:16.017Z,10.30
2019-03-22T19:02:44.882Z,10.30
2019-03-22T19:05:14.163Z,10.30
2019-03-22T19:07:42.870Z,10.30
2019-03-22T19:10:16.019Z,10.20
2019-03-22T19:12:44.759Z,10.20
2019-03-22T19:15:14.535Z,10.10
2019-03-22T19:17:43.201Z,10.10
2019-03-22T19:20:15.923Z,10.10
2019-03-22T19:22:44.768Z,10.00
2019-03-22T19:25:14.598Z,9.90
2019-03-22T19:27:43.640Z,9.90
2019-03-22T19:30:15.072Z,9.90
2019-03-22T19:32:43.836Z,9.80
2019-03-22T19:35:12.920Z,9.80
2019-03-22T19:37:41.695Z,9.70
2019-03-22T19:40:12.595Z,9.70
2019-03-22T19:42:41.519Z,9.70
2019-03-22T19:45:12.491Z,9.70
2019-03-22T19:47:41.335Z,9.60
2019-03-22T19:50:18.165Z,9.50
2019-03-22T19:52:47.366Z,9.40
2019-03-22T19:55:16.168Z,9.40
2019-03-22T19:57:45.074Z,9.40
2019-03-22T20:00:16.590Z,9.30
2019-03-22T20:02:45.380Z,9.30
2019-03-22T20:05:22.980Z,9.20
2019-03-22T20:07:51.846Z,9.20
2019-03-22T20:10:20.716Z,9.20
2019-03-22T20:12:49.897Z,9.20
2019-03-22T20:15:18.750Z,9.10
2019-03-22T20:17:47.620Z,9.10
2019-03-22T20:20:16.458Z,9.10
2019-03-22T20:22:45.470Z,9.10
2019-03-22T20:25:14.595Z,9.10
2019-03-22T20:27:43.620Z,9.10
2019-03-22T20:30:14.922Z,9.10
2019-03-22T20:32:44.094Z,9.10
2019-03-22T20:35:16.667Z,9.10
2019-03-22T20:37:44.954Z,9.10
2019-03-22T20:40:16.119Z,9.10
2019-03-22T20:42:45.160Z,9.10
2019-03-22T20:45:23.596Z,9.10
2019-03-22T20:47:44.424Z,9.10
2019-03-22T20:50:13.591Z,9.10
2019-03-22T20:52:42.508Z,9.10
2019-03-22T20:55:11.338Z,9.10
2019-03-22T20:57:40.088Z,9.10
2019-03-22T21:00:12.397Z,9.00
2019-03-22T21:02:41.199Z,9.00
2019-03-22T21:05:10.362Z,9.00
2019-03-22T21:07:39.111Z,8.90
2019-03-22T21:10:08.844Z,8.90
2019-03-22T21:12:37.761Z,8.90
2019-03-22T21:15:07.969Z,8.90
2019-03-22T21:17:36.703Z,8.80
2019-03-22T21:20:10.280Z,8.80
2019-03-22T21:22:39.121Z,8.70
2019-03-22T21:25:08.740Z,8.70
2019-03-22T21:27:37.633Z,8.70
2019-03-22T21:30:08.940Z,8.70
2019-03-22T21:32:45.234Z,8.70
2019-03-22T21:35:08.810Z,8.60
2019-03-22T21:37:37.569Z,8.60
2019-03-22T21:40:08.224Z,8.60
2019-03-22T21:42:37.088Z,8.60
2019-03-22T21:45:06.918Z,8.50
2019-03-22T21:47:36.280Z,8.40
2019-03-22T21:50:07.896Z,8.30
2019-03-22T21:52:36.556Z,8.30
2019-03-22T21:55:07.242Z,8.30
2019-03-22T21:57:36.080Z,8.30
2019-03-22T22:00:10.504Z,8.20
2019-03-22T22:02:39.246Z,8.20
2019-03-22T22:05:08.321Z,8.10
2019-03-22T22:07:37.235Z,8.00
2019-03-22T22:10:10.438Z,8.00
2019-03-22T22:12:39.512Z,7.90
2019-03-22T22:15:12.115Z,7.90
2019-03-22T22:17:41.624Z,7.80
2019-03-22T22:20:10.889Z,7.80
2019-03-22T22:22:39.540Z,7.70
2019-03-22T22:25:09.360Z,7.70
2019-03-22T22:27:38.149Z,7.70
2019-03-22T22:30:08.987Z,7.60
2019-03-22T22:32:37.855Z,7.60
2019-03-22T22:35:08.253Z,7.50
2019-03-22T22:37:36.965Z,7.50
2019-03-22T22:40:11.449Z,7.40
2019-03-22T22:42:40.278Z,7.40
2019-03-22T22:45:10.755Z,7.30
2019-03-22T22:47:39.487Z,7.30
2019-03-22T22:50:12.443Z,7.10
2019-03-22T22:52:41.329Z,7.00
2019-03-22T22:55:10.561Z,7.00
2019-03-22T22:57:39.435Z,6.80
2019-03-22T23:00:15.832Z,6.80
2019-03-22T23:02:45.080Z,6.70
2019-03-22T23:05:13.927Z,6.60
2019-03-22T23:07:42.923Z,6.60
2019-03-22T23:10:12.841Z,6.60
2019-03-22T23:12:42.283Z,6.70
2019-03-22T23:15:11.595Z,6.70
2019-03-22T23:17:40.541Z,6.70
2019-03-22T23:20:10.634Z,6.80
2019-03-22T23:22:39.395Z,6.80
2019-03-22T23:25:08.205Z,6.80
2019-03-22T23:27:37.641Z,6.70
2019-03-22T23:30:09.354Z,6.70
2019-03-22T23:32:38.289Z,6.70
2019-03-22T23:35:07.168Z,6.70
2019-03-22T23:37:35.830Z,6.60
2019-03-22T23:40:06.413Z,6.50
2019-03-22T23:42:35.131Z,6.40
2019-03-22T23:45:05.489Z,6.30
2019-03-22T23:47:34.226Z,6.20
2019-03-22T23:50:03.642Z,6.30
2019-03-22T23:52:32.323Z,6.30
2019-03-22T23:55:01.239Z,6.30
2019-03-22T23:57:30.049Z,6.40
2019-03-22T23:59:58.796Z,6.40
